Time,TemperatureF,DewpointF,PressureIn,WindDirection,WindDirectionDegrees,WindSpeedMPH,WindSpeedGustMPH,Humidity,HourlyPrecipIn,Conditions,Clouds,dailyrainin,SoftwareType,DateUTC
2013-05-17 00:02:00,58.5,50.0,29.77,West,273,0.0,0.0,73,0.00,,,0.00,weatherlink.com 1.10,2013-05-17 04:02:00,
2013-05-17 00:17:00,58.1,50.0,29.77,West,279,0.0,1.0,74,0.00,,,0.00,weatherlink.com 1.10,2013-05-17 04:17:00,
2013-05-17 00:32:00,57.9,50.0,29.78,West,279,0.0,0.0,76,0.00,,,0.00,weatherlink.com 1.10,2013-05-17 04:32:00,
2013-05-17 00:47:00,57.7,51.0,29.78,WNW,299,0.0,1.0,77,0.00,,,0.00,weatherlink.com 1.10,2013-05-17 04:47:00,
2013-05-17 01:02:00,57.7,51.0,29.78,WNW,300,0.0,3.0,78,0.00,,,0.00,weatherlink.com 1.10,2013-05-17 05:02:00,
2013-05-17 01:17:00,58.0,49.0,29.78,NW,323,0.0,6.0,73,0.00,,,0.00,weatherlink.com 1.10,2013-05-17 05:17:00,
2013-05-17 01:32:00,59.3,46.0,29.78,NW,314,0.0,3.0,62,0.00,,,0.00,weatherlink.com 1.10,2013-05-17 05:32:00,
2013-05-17 01:47:00,60.0,44.0,29.78,NW,322,0.0,3.0,55,0.00,,,0.00,weatherlink.com 1.10,2013-05-17 05:47:00,
2013-05-17 02:02:00,60.2,43.0,29.78,NW,322,0.0,2.0,54,0.00,,,0.00,weatherlink.com 1.10,2013-05-17 06:02:00,
2013-05-17 02:17:00,59.9,42.0,29.79,North,349,0.0,5.0,52,0.00,,,0.00,weatherlink.com 1.10,2013-05-17 06:17:00,
2013-05-17 02:32:00,59.9,45.0,29.80,NNW,338,0.0,4.0,58,0.00,,,0.00,weatherlink.com 1.10,2013-05-17 06:32:00,
2013-05-17 02:47:00,59.1,45.0,29.81,ENE,63,1.0,5.0,61,0.00,,,0.00,weatherlink.com 1.10,2013-05-17 06:47:00,
2013-05-17 03:02:00,58.3,46.0,29.82,NNW,338,0.0,1.0,64,0.00,,,0.00,weatherlink.com 1.10,2013-05-17 07:02:00,
2013-05-17 03:17:00,57.4,46.0,29.82,NNW,338,0.0,1.0,65,0.00,,,0.00,weatherlink.com 1.10,2013-05-17 07:17:00,
2013-05-17 03:32:00,56.4,46.0,29.82,NNW,345,0.0,1.0,68,0.00,,,0.00,weatherlink.com 1.10,2013-05-17 07:32:00,
2013-05-17 03:47:00,55.5,46.0,29.83,NNW,342,0.0,2.0,71,0.00,,,0.00,weatherlink.com 1.10,2013-05-17 07:47:00,
2013-05-17 04:02:00,54.8,46.0,29.84,NNW,342,0.0,1.0,73,0.00,,,0.00,weatherlink.com 1.10,2013-05-17 08:02:00,
2013-05-17 04:17:00,54.2,46.0,29.85,NNW,340,0.0,0.0,73,0.00,,,0.00,weatherlink.com 1.10,2013-05-17 08:17:00,
2013-05-17 04:32:00,53.7,46.0,29.86,NNW,340,0.0,0.0,75,0.00,,,0.00,weatherlink.com 1.10,2013-05-17 08:32:00,
2013-05-17 04:47:00,53.1,45.0,29.87,NNW,341,0.0,0.0,75,0.00,,,0.00,weatherlink.com 1.10,2013-05-17 08:47:00,
2013-05-17 05:02:00,52.5,45.0,29.88,NNW,341,0.0,0.0,75,0.00,,,0.00,weatherlink.com 1.10,2013-05-17 09:02:00,
2013-05-17 05:17:00,51.8,44.0,29.88,NNW,341,0.0,0.0,76,0.00,,,0.00,weatherlink.com 1.10,2013-05-17 09:17:00,
2013-05-17 05:32:00,51.2,45.0,29.88,NNW,341,0.0,0.0,79,0.00,,,0.00,weatherlink.com 1.10,2013-05-17 09:32:00,
2013-05-17 05:47:00,50.6,45.0,29.89,NNW,341,0.0,0.0,80,0.00,,,0.00,weatherlink.com 1.10,2013-05-17 09:47:00,
2013-05-17 06:03:00,50.4,45.0,29.90,NNW,341,0.0,0.0,81,0.00,,,0.00,weatherlink.com 1.10,2013-05-17 10:03:00,
2013-05-17 06:18:00,50.7,45.0,29.91,NNW,341,0.0,0.0,81,0.00,,,0.00,weatherlink.com 1.10,2013-05-17 10:18:00,
2013-05-17 06:33:00,51.9,45.0,29.92,NNW,342,0.0,1.0,78,0.00,,,0.00,weatherlink.com 1.10,2013-05-17 10:33:00,
2013-05-17 06:48:00,53.5,45.0,29.92,NNW,347,0.0,3.0,74,0.00,,,0.00,weatherlink.com 1.10,2013-05-17 10:48:00,
2013-05-17 07:03:00,55.3,46.0,29.93,North,4,0.0,4.0,70,0.00,,,0.00,weatherlink.com 1.10,2013-05-17 11:03:00,
2013-05-17 07:18:00,56.7,45.0,29.93,North,356,0.0,4.0,65,0.00,,,0.00,weatherlink.com 1.10,2013-05-17 11:18:00,
2013-05-17 07:33:00,57.8,45.0,29.94,NNW,337,0.0,8.0,62,0.00,,,0.00,weatherlink.com 1.10,2013-05-17 11:33:00,
2013-05-17 07:48:00,58.6,46.0,29.94,NW,314,0.0,6.0,63,0.00,,,0.00,weatherlink.com 1.10,2013-05-17 11:48:00,
2013-05-17 08:03:00,59.6,45.0,29.95,WNW,296,0.0,9.0,59,0.00,,,0.00,weatherlink.com 1.10,2013-05-17 12:03:00,
2013-05-17 08:18:00,60.3,46.0,29.95,NW,321,0.0,5.0,60,0.00,,,0.00,weatherlink.com 1.10,2013-05-17 12:18:00,
2013-05-17 08:33:00,61.4,46.0,29.95,North,4,0.0,3.0,58,0.00,,,0.00,weatherlink.com 1.10,2013-05-17 12:33:00,
2013-05-17 08:48:00,61.4,46.0,29.95,NNW,330,1.0,7.0,57,0.00,,,0.00,weatherlink.com 1.10,2013-05-17 12:48:00,
2013-05-17 09:03:00,62.2,46.0,29.95,NNW,330,1.0,14.0,55,0.00,,,0.00,weatherlink.com 1.10,2013-05-17 13:03:00,
2013-05-17 09:18:00,62.2,45.0,29.95,SE,126,0.0,7.0,54,0.00,,,0.00,weatherlink.com 1.10,2013-05-17 13:18:00,
2013-05-17 09:33:00,62.2,45.0,29.96,NW,319,7.0,10.0,54,0.00,,,0.00,weatherlink.com 1.10,2013-05-17 13:33:00,
2013-05-17 09:48:00,62.9,45.0,29.96,WSW,257,2.0,9.0,53,0.00,,,0.00,weatherlink.com 1.10,2013-05-17 13:48:00,
2013-05-17 10:03:00,64.3,46.0,29.97,NNW,344,1.0,8.0,51,0.00,,,0.00,weatherlink.com 1.10,2013-05-17 14:03:00,
2013-05-17 10:18:00,65.7,46.0,29.97,North,358,0.0,5.0,50,0.00,,,0.00,weatherlink.com 1.10,2013-05-17 14:18:00,
2013-05-17 10:33:00,65.7,46.0,29.98,North,11,2.0,9.0,49,0.00,,,0.00,weatherlink.com 1.10,2013-05-17 14:33:00,
2013-05-17 10:48:00,65.2,45.0,29.98,NW,326,3.0,5.0,48,0.00,,,0.00,weatherlink.com 1.10,2013-05-17 14:48:00,
2013-05-17 11:03:00,65.7,45.0,29.98,SSW,209,0.0,7.0,47,0.00,,,0.00,weatherlink.com 1.10,2013-05-17 15:03:00,
2013-05-17 11:18:00,66.6,45.0,29.99,NW,319,0.0,5.0,46,0.00,,,0.00,weatherlink.com 1.10,2013-05-17 15:18:00,
2013-05-17 11:33:00,66.7,46.0,29.99,NNW,335,0.0,7.0,48,0.00,,,0.00,weatherlink.com 1.10,2013-05-17 15:33:00,
2013-05-17 11:48:00,67.1,45.0,29.99,NW,322,1.0,5.0,45,0.00,,,0.00,weatherlink.com 1.10,2013-05-17 15:48:00,
2013-05-17 12:03:00,67.4,46.0,29.99,NNW,344,0.0,7.0,47,0.00,,,0.00,weatherlink.com 1.10,2013-05-17 16:03:00,
2013-05-17 12:19:00,68.7,46.0,29.99,East,86,3.0,5.0,45,0.00,,,0.00,weatherlink.com 1.10,2013-05-17 16:19:00,
2013-05-17 12:33:00,69.8,46.0,29.99,North,6,0.0,3.0,42,0.00,,,0.00,weatherlink.com 1.10,2013-05-17 16:33:00,
2013-05-17 12:48:00,69.6,45.0,29.99,NNW,333,0.0,9.0,42,0.00,,,0.00,weatherlink.com 1.10,2013-05-17 16:48:00,
2013-05-17 13:03:00,69.6,46.0,29.99,NNW,347,0.0,8.0,43,0.00,,,0.00,weatherlink.com 1.10,2013-05-17 17:03:00,
2013-05-17 13:18:00,69.8,46.0,29.99,NNW,330,0.0,5.0,43,0.00,,,0.00,weatherlink.com 1.10,2013-05-17 17:18:00,
2013-05-17 13:33:00,69.7,45.0,30.00,NW,314,2.0,5.0,41,0.00,,,0.00,weatherlink.com 1.10,2013-05-17 17:33:00,
2013-05-17 13:48:00,68.8,46.0,30.00,North,5,1.0,4.0,45,0.00,,,0.00,weatherlink.com 1.10,2013-05-17 17:48:00,
2013-05-17 14:03:00,69.7,45.0,30.00,East,82,0.0,3.0,42,0.00,,,0.00,weatherlink.com 1.10,2013-05-17 18:03:00,
2013-05-17 14:19:00,70.8,45.0,30.01,SW,236,0.0,4.0,40,0.00,,,0.00,weatherlink.com 1.10,2013-05-17 18:19:00,
2013-05-17 14:34:00,69.7,44.0,30.01,WSW,238,1.0,6.0,40,0.00,,,0.00,weatherlink.com 1.10,2013-05-17 18:34:00,
2013-05-17 14:49:00,69.4,48.0,30.01,East,99,8.0,8.0,46,0.00,,,0.00,weatherlink.com 1.10,2013-05-17 18:49:00,
2013-05-17 15:04:00,67.3,46.0,30.02,East,90,5.0,10.0,47,0.00,,,0.00,weatherlink.com 1.10,2013-05-17 19:04:00,
2013-05-17 15:19:00,64.7,46.0,30.02,SW,215,4.0,7.0,52,0.00,,,0.00,weatherlink.com 1.10,2013-05-17 19:19:00,
2013-05-17 15:34:00,64.5,45.0,30.03,SW,236,0.0,6.0,49,0.00,,,0.00,weatherlink.com 1.10,2013-05-17 19:34:00,
2013-05-17 15:49:00,65.4,45.0,30.03,WNW,291,0.0,7.0,48,0.00,,,0.00,weatherlink.com 1.10,2013-05-17 19:49:00,
2013-05-17 16:04:00,66.7,45.0,30.04,East,85,4.0,7.0,46,0.00,,,0.00,weatherlink.com 1.10,2013-05-17 20:04:00,
2013-05-17 16:19:00,65.5,48.0,30.04,SSW,200,2.0,9.0,53,0.00,,,0.00,weatherlink.com 1.10,2013-05-17 20:19:00,
2013-05-17 16:34:00,65.0,46.0,30.05,SSW,195,2.0,7.0,51,0.00,,,0.00,weatherlink.com 1.10,2013-05-17 20:34:00,
2013-05-17 16:49:00,62.9,46.0,30.05,SE,127,1.0,9.0,54,0.00,,,0.00,weatherlink.com 1.10,2013-05-17 20:49:00,
2013-05-17 17:04:00,62.4,46.0,30.07,SW,218,5.0,6.0,56,0.00,,,0.00,weatherlink.com 1.10,2013-05-17 21:04:00,
2013-05-17 17:19:00,61.8,47.0,30.07,SW,226,1.0,7.0,59,0.00,,,0.00,weatherlink.com 1.10,2013-05-17 21:19:00,
2013-05-17 17:34:00,61.8,47.0,30.08,SSW,210,1.0,4.0,58,0.00,,,0.00,weatherlink.com 1.10,2013-05-17 21:34:00,
2013-05-17 17:49:00,62.2,46.0,30.08,SE,140,1.0,5.0,56,0.00,,,0.00,weatherlink.com 1.10,2013-05-17 21:49:00,
2013-05-17 18:04:00,61.6,46.0,30.09,South,187,1.0,6.0,57,0.00,,,0.00,weatherlink.com 1.10,2013-05-17 22:04:00,
2013-05-17 18:19:00,60.6,46.0,30.09,South,172,0.0,8.0,58,0.00,,,0.00,weatherlink.com 1.10,2013-05-17 22:19:00,
2013-05-17 18:34:00,60.4,46.0,30.10,SSW,211,2.0,6.0,60,0.00,,,0.00,weatherlink.com 1.10,2013-05-17 22:34:00,
2013-05-17 18:49:00,59.7,46.0,30.10,SW,222,0.0,6.0,60,0.00,,,0.00,weatherlink.com 1.10,2013-05-17 22:49:00,
2013-05-17 19:04:00,58.9,46.0,30.11,SW,224,0.0,5.0,62,0.00,,,0.00,weatherlink.com 1.10,2013-05-17 23:04:00,
2013-05-17 19:19:00,58.0,46.0,30.11,SW,231,3.0,5.0,64,0.00,,,0.00,weatherlink.com 1.10,2013-05-17 23:19:00,
2013-05-17 19:34:00,57.4,46.0,30.12,SW,218,1.0,3.0,66,0.00,,,0.00,weatherlink.com 1.10,2013-05-17 23:34:00,
2013-05-17 19:49:00,56.9,46.0,30.12,SSW,209,0.0,5.0,68,0.00,,,0.00,weatherlink.com 1.10,2013-05-17 23:49:00,
2013-05-17 20:04:00,56.2,47.0,30.13,SW,234,0.0,3.0,70,0.00,,,0.00,weatherlink.com 1.10,2013-05-18 00:04:00,
2013-05-17 20:19:00,55.5,47.0,30.13,SW,234,0.0,3.0,72,0.00,,,0.00,weatherlink.com 1.10,2013-05-18 00:19:00,
2013-05-17 20:34:00,55.0,46.0,30.14,SW,233,0.0,5.0,72,0.00,,,0.00,weatherlink.com 1.10,2013-05-18 00:34:00,
2013-05-17 20:49:00,54.6,46.0,30.15,SW,233,0.0,0.0,73,0.00,,,0.00,weatherlink.com 1.10,2013-05-18 00:49:00,
2013-05-17 21:04:00,54.0,46.0,30.16,SW,233,0.0,1.0,75,0.00,,,0.00,weatherlink.com 1.10,2013-05-18 01:04:00,
2013-05-17 21:19:00,53.5,46.0,30.17,SW,233,0.0,0.0,77,0.00,,,0.00,weatherlink.com 1.10,2013-05-18 01:19:00,
2013-05-17 21:34:00,53.0,47.0,30.18,SW,233,0.0,0.0,79,0.00,,,0.00,weatherlink.com 1.10,2013-05-18 01:34:00,
2013-05-17 21:49:00,52.3,47.0,30.19,SW,233,0.0,0.0,81,0.00,,,0.00,weatherlink.com 1.10,2013-05-18 01:49:00,
2013-05-17 22:04:00,51.7,47.0,30.19,SW,233,0.0,0.0,83,0.00,,,0.00,weatherlink.com 1.10,2013-05-18 02:04:00,
2013-05-17 22:19:00,51.0,46.0,30.20,SW,233,0.0,0.0,84,0.00,,,0.00,weatherlink.com 1.10,2013-05-18 02:19:00,
2013-05-17 22:35:00,50.7,47.0,30.19,SW,233,0.0,0.0,86,0.00,,,0.00,weatherlink.com 1.10,2013-05-18 02:35:00,
2013-05-17 22:50:00,50.4,47.0,30.20,SW,233,0.0,0.0,87,0.00,,,0.00,weatherlink.com 1.10,2013-05-18 02:50:00,
2013-05-17 23:05:00,50.1,47.0,30.20,SW,233,0.0,0.0,88,0.00,,,0.00,weatherlink.com 1.10,2013-05-18 03:05:00,
2013-05-17 23:20:00,49.7,47.0,30.20,SW,233,0.0,0.0,89,0.00,,,0.00,weatherlink.com 1.10,2013-05-18 03:20:00,
2013-05-17 23:35:00,49.2,46.0,30.20,SW,233,0.0,0.0,89,0.00,,,0.00,weatherlink.com 1.10,2013-05-18 03:35:00,
2013-05-17 23:50:00,48.9,46.0,30.20,SW,233,0.0,0.0,90,0.00,,,0.00,weatherlink.com 1.10,2013-05-18 03:50:00,